Swanton, Vermont
Current Conditions -  °F | °C
As of 12:15 AM on Thursday 27 Nov 2014 (Local Time) from KFSO Reporting Station
Light Snow Light Snow  
Wind Chill: 20°   Ceiling: 1000
Heat Index: 28°   Visibility: 2.5mi
Dew Point: 27°   Wind: 8mph
Humidity: 94%   Direction: 350°N
Pressure: 29.97"   Gusts: NA
Location:  44.92°N, 73.12°W
Report Text: KFSO 270515Z AUTO 35007KT 2 1/2SM -SN SCT005 OVC010 M02/M03 A2997 RMK AO2 T10201028
Loading
Personal Weather Stations






























Interactive Weather Map New forecast layout! Learn more

10-Day Weather Forecast

Advertisements
Track Severe Weather on mobile